| time (UTC) | temp C | wind direction | speed KPH | gust KPH | rain 1hr cm | rain 24hr cm | rain mn cm | humidity % | barometer mb |
| 20260506184940 | 11 | 19 | 12.9 | 19.3 | 0.00 | 0.15 | 0.15 | 68 | 1010.7 |
| 20260506184438 | 11 | 14 | 14.5 | 19.3 | 0.00 | 0.15 | 0.15 | 65 | 1010.6 |
| 20260506183938 | 11 | 351 | 12.9 | 16.1 | 0.00 | 0.15 | 0.15 | 65 | 1010.6 |
| 20260506183437 | 11 | 16 | 12.9 | 16.1 | 0.00 | 0.15 | 0.15 | 66 | 1010.6 |
| 20260506182938 | 11 | 24 | 12.9 | 17.7 | 0.00 | 0.15 | 0.15 | 65 | 1010.5 |
| 20260506182437 | 12 | 26 | 11.3 | 17.7 | 0.00 | 0.15 | 0.15 | 66 | 1010.4 |
| 20260506181937 | 12 | 29 | 9.7 | 14.5 | 0.00 | 0.15 | 0.15 | 65 | 1010.5 |
| 20260506181438 | 12 | 31 | 8.0 | 12.9 | 0.00 | 0.15 | 0.15 | 65 | 1010.4 |
| 20260506180939 | 12 | 3 | 8.0 | 11.3 | 0.00 | 0.15 | 0.15 | 66 | 1010.4 |
| 20260506180438 | 12 | 19 | 8.0 | 11.3 | 0.00 | 0.15 | 0.15 | 64 | 1010.3 |
| 20260506175938 | 12 | 30 | 4.8 | 8.0 | 0.00 | 0.15 | 0.15 | 65 | 1010.2 |
| 20260506175438 | 12 | 3 | 4.8 | 9.7 | 0.00 | 0.15 | 0.15 | 65 | 1010.2 |
| 20260506174936 | 12 | 26 | 6.4 | 9.7 | 0.00 | 0.15 | 0.15 | 63 | 1010.1 |
| 20260506174432 | 12 | 30 | 6.4 | 9.7 | 0.00 | 0.15 | 0.15 | 63 | 1010.0 |
| 20260506173933 | 12 | 30 | 6.4 | 9.7 | 0.00 | 0.18 | 0.15 | 63 | 1010.0 |
| 20260506173432 | 12 | 28 | 6.4 | 9.7 | 0.00 | 0.18 | 0.15 | 63 | 1009.9 |
| 20260506172932 | 12 | 26 | 6.4 | 9.7 | 0.00 | 0.18 | 0.15 | 62 | 1009.9 |
| 20260506172431 | 12 | 33 | 6.4 | 9.7 | 0.00 | 0.18 | 0.15 | 62 | 1009.8 |
| 20260506171931 | 12 | 35 | 6.4 | 9.7 | 0.00 | 0.18 | 0.15 | 58 | 1009.7 |
| 20260506171431 | 12 | 63 | 6.4 | 9.7 | 0.00 | 0.18 | 0.15 | 58 | 1009.7 |
| 20260506170932 | 12 | 63 | 6.4 | 11.3 | 0.00 | 0.18 | 0.15 | 59 | 1009.7 |
| 20260506170438 | 12 | 43 | 6.4 | 11.3 | 0.00 | 0.18 | 0.15 | 58 | 1009.6 |
| 20260506165938 | 12 | 30 | 6.4 | 11.3 | 0.00 | 0.18 | 0.15 | 59 | 1009.6 |
| 20260506165435 | 12 | 38 | 6.4 | 11.3 | 0.00 | 0.18 | 0.15 | 60 | 1009.6 |
| 20260506164932 | 12 | 37 | 8.0 | 12.9 | 0.00 | 0.18 | 0.15 | 62 | 1009.6 |
| 20260506164437 | 12 | 65 | 9.7 | 14.5 | 0.00 | 0.20 | 0.15 | 57 | 1009.6 |
| 20260506164430 | 12 | 34 | 9.7 | 14.5 | 0.00 | 0.20 | 0.15 | 60 | 1009.6 |
| 20260506163427 | 12 | 38 | 9.7 | 14.5 | 0.00 | 0.20 | 0.15 | 55 | 1009.6 |
| 20260506162928 | 12 | 44 | 9.7 | 17.7 | 0.00 | 0.20 | 0.15 | 57 | 1009.6 |
| 20260506162428 | 12 | 52 | 9.7 | 17.7 | 0.00 | 0.20 | 0.15 | 59 | 1009.6 |
| 20260506161928 | 12 | 58 | 9.7 | 14.5 | 0.00 | 0.23 | 0.15 | 57 | 1009.6 |
| 20260506161427 | 12 | 33 | 9.7 | 17.7 | 0.00 | 0.23 | 0.15 | 56 | 1009.5 |
| 20260506160928 | 12 | 43 | 11.3 | 19.3 | 0.00 | 0.23 | 0.15 | 54 | 1009.5 |
| 20260506160427 | 12 | 48 | 12.9 | 19.3 | 0.00 | 0.23 | 0.15 | 57 | 1009.5 |
| 20260506155926 | 12 | 44 | 12.9 | 24.1 | 0.00 | 0.23 | 0.15 | 57 | 1009.5 |
| 20260506155425 | 12 | 63 | 12.9 | 24.1 | 0.00 | 0.23 | 0.15 | 58 | 1009.6 |
| 20260506155159 | 12 | 34 | 12.9 | 25.7 | 0.00 | 0.23 | 0.15 | 58 | 1009.5 |
| 20260506154925 | 12 | 38 | 12.9 | 20.9 | 0.00 | 0.23 | 0.15 | 59 | 1009.6 |
| 20260506153920 | 12 | 41 | 14.5 | 25.7 | 0.00 | 0.23 | 0.15 | 57 | 1009.5 |
| 20260506153419 | 12 | 17 | 14.5 | 24.1 | 0.00 | 0.23 | 0.15 | 60 | 1009.5 |
| 20260506152916 | 12 | 33 | 12.9 | 20.9 | 0.00 | 0.23 | 0.15 | 59 | 1009.5 |
| 20260506152416 | 12 | 12 | 11.3 | 20.9 | 0.00 | 0.23 | 0.15 | 58 | 1009.5 |
| 20260506152147 | 12 | 37 | 11.3 | 20.9 | 0.00 | 0.23 | 0.15 | 57 | 1009.6 |
| 20260506151417 | 12 | 31 | 11.3 | 20.9 | 0.00 | 0.23 | 0.15 | 57 | 1009.5 |
| 20260506150917 | 12 | 48 | 12.9 | 20.9 | 0.00 | 0.23 | 0.15 | 58 | 1009.5 |
| 20260506150417 | 12 | 57 | 12.9 | 19.3 | 0.00 | 0.23 | 0.15 | 56 | 1009.5 |
| 20260506150148 | 12 | 38 | 14.5 | 27.4 | 0.00 | 0.23 | 0.15 | 57 | 1009.5 |
| 20260506145414 | 12 | 43 | 16.1 | 30.6 | 0.00 | 0.23 | 0.15 | 57 | 1009.4 |
| 20260506144911 | 12 | 35 | 16.1 | 30.6 | 0.00 | 0.23 | 0.15 | 57 | 1009.4 |
| 20260506144408 | 12 | 37 | 12.9 | 20.9 | 0.00 | 0.23 | 0.15 | 57 | 1009.4 |
| 20260506143908 | 12 | 46 | 12.9 | 19.3 | 0.00 | 0.23 | 0.15 | 57 | 1009.4 |
| 20260506143406 | 12 | 37 | 12.9 | 20.9 | 0.00 | 0.23 | 0.15 | 59 | 1009.4 |
| 20260506142906 | 12 | 56 | 12.9 | 22.5 | 0.00 | 0.23 | 0.15 | 56 | 1009.3 |
| 20260506142406 | 12 | 42 | 12.9 | 22.5 | 0.00 | 0.23 | 0.15 | 58 | 1009.4 |
| 20260506141906 | 12 | 37 | 14.5 | 22.5 | 0.00 | 0.23 | 0.15 | 57 | 1009.4 |
| 20260506141406 | 12 | 42 | 14.5 | 27.4 | 0.00 | 0.23 | 0.15 | 58 | 1009.5 |
| 20260506141137 | 12 | 69 | 17.7 | 30.6 | 0.00 | 0.23 | 0.15 | 58 | 1009.4 |
| 20260506140407 | 12 | 34 | 17.7 | 30.6 | 0.00 | 0.23 | 0.15 | 58 | 1009.3 |
| 20260506135907 | 12 | 36 | 14.5 | 25.7 | 0.00 | 0.23 | 0.15 | 56 | 1009.4 |
| 20260506135403 | 12 | 39 | 14.5 | 25.7 | 0.00 | 0.23 | 0.15 | 57 | 1009.4 |
| 20260506134902 | 12 | 27 | 14.5 | 25.7 | 0.00 | 0.23 | 0.15 | 55 | 1009.3 |
| 20260506134636 | 12 | 60 | 14.5 | 25.7 | 0.00 | 0.23 | 0.15 | 53 | 1009.3 |
| 20260506133900 | 12 | 31 | 14.5 | 25.7 | 0.00 | 0.23 | 0.15 | 53 | 1009.2 |
| 20260506133400 | 13 | 36 | 14.5 | 25.7 | 0.00 | 0.23 | 0.15 | 54 | 1009.3 |
| 20260506132858 | 12 | 31 | 19.3 | 38.6 | 0.00 | 0.23 | 0.15 | 53 | 1009.2 |
| 20260506132357 | 12 | 38 | 25.7 | 38.6 | 0.00 | 0.23 | 0.15 | 52 | 1009.1 |
| 20260506131855 | 12 | 16 | 29.0 | 41.8 | 0.00 | 0.23 | 0.15 | 51 | 1009.1 |
| 20260506131355 | 12 | 23 | 29.0 | 41.8 | 0.00 | 0.23 | 0.15 | 52 | 1008.8 |
| 20260506130855 | 12 | 31 | 27.4 | 38.6 | 0.00 | 0.23 | 0.15 | 52 | 1008.9 |
| 20260506130356 | 12 | 25 | 22.5 | 33.8 | 0.00 | 0.23 | 0.13 | 52 | 1009.0 |
| 20260506125856 | 13 | 27 | 20.9 | 37.0 | 0.00 | 0.23 | 0.13 | 53 | 1009.0 |
| 20260506125632 | 13 | 36 | 22.5 | 37.0 | 0.00 | 0.23 | 0.13 | 52 | 1008.9 |
| 20260506124856 | 13 | 21 | 24.1 | 33.8 | 0.00 | 0.23 | 0.13 | 52 | 1008.9 |
| 20260506124354 | 13 | 14 | 22.5 | 33.8 | 0.00 | 0.23 | 0.13 | 52 | 1008.8 |
| 20260506123855 | 13 | 32 | 19.3 | 33.8 | 0.00 | 0.23 | 0.13 | 58 | 1008.7 |
| 20260506123355 | 13 | 39 | 19.3 | 32.2 | 0.00 | 0.23 | 0.13 | 60 | 1008.6 |
| 20260506122855 | 12 | 28 | 20.9 | 32.2 | 0.00 | 0.23 | 0.13 | 62 | 1008.7 |
| 20260506122354 | 12 | 29 | 17.7 | 30.6 | 0.00 | 0.23 | 0.13 | 60 | 1008.7 |
| 20260506122123 | 12 | 11 | 14.5 | 24.1 | 0.00 | 0.23 | 0.13 | 60 | 1008.7 |
| 20260506121350 | 12 | 11 | 14.5 | 22.5 | 0.00 | 0.23 | 0.13 | 63 | 1008.8 |
| 20260506120849 | 12 | 9 | 14.5 | 22.5 | 0.00 | 0.23 | 0.13 | 63 | 1008.8 |
| 20260506120350 | 12 | 5 | 12.9 | 17.7 | 0.00 | 0.23 | 0.13 | 66 | 1008.8 |
| 20260506115849 | 12 | 3 | 12.9 | 19.3 | 0.00 | 0.23 | 0.13 | 70 | 1008.8 |
| 20260506115350 | 12 | 20 | 14.5 | 24.1 | 0.00 | 0.23 | 0.13 | 69 | 1008.8 |
| 20260506114849 | 12 | 7 | 16.1 | 24.1 | 0.00 | 0.23 | 0.13 | 69 | 1008.8 |
| 20260506114350 | 12 | 11 | 17.7 | 25.7 | 0.00 | 0.23 | 0.13 | 70 | 1008.8 |
| 20260506113850 | 12 | 10 | 17.7 | 25.7 | 0.00 | 0.23 | 0.13 | 71 | 1008.7 |
| 20260506113350 | 11 | 6 | 17.7 | 25.7 | 0.00 | 0.23 | 0.13 | 72 | 1008.8 |
| 20260506112850 | 11 | 3 | 16.1 | 29.0 | 0.00 | 0.23 | 0.13 | 74 | 1008.9 |
| 20260506112350 | 11 | 16 | 19.3 | 29.0 | 0.00 | 0.23 | 0.13 | 74 | 1008.9 |
| 20260506111849 | 11 | 11 | 19.3 | 27.4 | 0.00 | 0.23 | 0.13 | 74 | 1008.8 |
| 20260506111347 | 11 | 1 | 19.3 | 29.0 | 0.00 | 0.23 | 0.13 | 75 | 1008.8 |
| 20260506110848 | 11 | 6 | 19.3 | 29.0 | 0.00 | 0.23 | 0.13 | 76 | 1008.7 |
| 20260506110344 | 11 | 0 | 20.9 | 30.6 | 0.00 | 0.23 | 0.13 | 77 | 1008.8 |
| 20260506105845 | 11 | 21 | 22.5 | 40.2 | 0.00 | 0.23 | 0.13 | 77 | 1008.7 |
| 20260506105345 | 11 | 18 | 24.1 | 40.2 | 0.00 | 0.23 | 0.13 | 78 | 1008.6 |
| 20260506104844 | 11 | 13 | 24.1 | 33.8 | 0.00 | 0.23 | 0.13 | 76 | 1008.7 |
| 20260506104345 | 11 | 8 | 24.1 | 38.6 | 0.00 | 0.23 | 0.13 | 77 | 1008.5 |
| 20260506103845 | 12 | 13 | 27.4 | 38.6 | 0.00 | 0.23 | 0.13 | 77 | 1008.6 |
| 20260506103621 | 12 | 9 | 27.4 | 38.6 | 0.00 | 0.23 | 0.13 | 74 | 1008.2 |
| 20260506103616 | 12 | 8 | 25.7 | 35.4 | 0.03 | 0.23 | 0.13 | 73 | 1008.5 |
| 20260506102343 | 12 | 6 | 22.5 | 33.8 | 0.03 | 0.23 | 0.13 | 71 | 1008.5 |
| 20260506101842 | 12 | 13 | 20.9 | 27.4 | 0.05 | 0.23 | 0.13 | 68 | 1008.4 |
| 20260506101339 | 12 | 9 | 22.5 | 35.4 | 0.05 | 0.23 | 0.13 | 65 | 1008.4 |
| 20260506100836 | 12 | 4 | 24.1 | 35.4 | 0.05 | 0.20 | 0.13 | 67 | 1008.2 |
| 20260506100604 | 12 | 6 | 22.5 | 35.4 | 0.05 | 0.20 | 0.13 | 68 | 1008.1 |
| 20260506095834 | 12 | 20 | 22.5 | 35.4 | 0.05 | 0.20 | 0.13 | 68 | 1008.1 |
| 20260506095337 | 13 | 33 | 24.1 | 35.4 | 0.10 | 0.20 | 0.13 | 65 | 1008.3 |
| 20260506094836 | 13 | 16 | 22.5 | 35.4 | 0.10 | 0.20 | 0.13 | 65 | 1008.1 |
| 20260506094335 | 13 | 30 | 20.9 | 40.2 | 0.10 | 0.20 | 0.13 | 65 | 1008.0 |
| 20260506093835 | 13 | 43 | 25.7 | 45.1 | 0.10 | 0.20 | 0.13 | 64 | 1008.1 |
| 20260506093601 | 12 | 28 | 30.6 | 45.1 | 0.10 | 0.20 | 0.13 | 64 | 1008.1 |
| 20260506092835 | 12 | 25 | 32.2 | 45.1 | 0.10 | 0.20 | 0.10 | 64 | 1007.9 |
| 20260506092335 | 12 | 16 | 27.4 | 41.8 | 0.10 | 0.18 | 0.10 | 66 | 1007.7 |
| 20260506091835 | 12 | 14 | 24.1 | 37.0 | 0.08 | 0.18 | 0.08 | 67 | 1007.7 |
| 20260506091336 | 12 | 29 | 22.5 | 35.4 | 0.08 | 0.18 | 0.08 | 67 | 1008.0 |
| 20260506090833 | 12 | 27 | 25.7 | 41.8 | 0.08 | 0.18 | 0.08 | 65 | 1007.8 |
| 20260506090329 | 12 | 31 | 30.6 | 45.1 | 0.05 | 0.15 | 0.05 | 68 | 1007.9 |
| 20260506085826 | 12 | 32 | 29.0 | 45.1 | 0.05 | 0.15 | 0.05 | 66 | 1007.8 |
| 20260506085322 | 12 | 30 | 24.1 | 41.8 | 0.03 | 0.13 | 0.03 | 67 | 1007.5 |
| 20260506084823 | 12 | 15 | 22.5 | 41.8 | 0.00 | 0.10 | 0.03 | 66 | 1007.9 |
| 20260506084322 | 12 | 44 | 25.7 | 38.6 | 0.00 | 0.10 | 0.00 | 68 | 1007.5 |
| 20260506083823 | 12 | 22 | 29.0 | 38.6 | 0.00 | 0.10 | 0.00 | 67 | 1007.8 |
| 20260506083323 | 12 | 16 | 27.4 | 37.0 | 0.00 | 0.10 | 0.00 | 67 | 1007.9 |
| 20260506082823 | 12 | 10 | 24.1 | 37.0 | 0.00 | 0.10 | 0.00 | 70 | 1007.6 |
| 20260506082323 | 12 | 7 | 20.9 | 30.6 | 0.00 | 0.10 | 0.00 | 76 | 1007.8 |
| 20260506081822 | 12 | 358 | 20.9 | 27.4 | 0.00 | 0.10 | 0.00 | 78 | 1007.7 |
| 20260506081333 | 12 | 336 | 17.7 | 25.7 | 0.00 | 0.10 | 0.00 | 78 | 1007.8 |
| 20260506081325 | 12 | 8 | 19.3 | 27.4 | 0.00 | 0.10 | 0.00 | 77 | 1007.7 |
| 20260506080323 | 12 | 14 | 16.1 | 24.1 | 0.00 | 0.10 | 0.00 | 78 | 1007.8 |
| 20260506073320 | 11 | 14 | 16.1 | 27.4 | 0.00 | 0.10 | 0.00 | 82 | 1007.6 |
| 20260506072821 | 11 | 327 | 14.5 | 20.9 | 0.00 | 0.10 | 0.00 | 87 | 1007.7 |
| 20260506072321 | 11 | 357 | 16.1 | 24.1 | 0.00 | 0.10 | 0.00 | 87 | 1007.8 |
| 20260506071821 | 10 | 343 | 16.1 | 25.7 | 0.00 | 0.10 | 0.00 | 88 | 1007.8 |
| 20260506071320 | 10 | 335 | 17.7 | 27.4 | 0.00 | 0.10 | 0.00 | 88 | 1007.7 |
| 20260506070821 | 10 | 337 | 19.3 | 27.4 | 0.00 | 0.10 | 0.00 | 88 | 1007.7 |
| 20260506070559 | 10 | 339 | 17.7 | 25.7 | 0.00 | 0.10 | 0.00 | 88 | 1007.7 |
| 20260506062315 | 10 | 330 | 16.1 | 25.7 | 0.00 | 0.10 | 0.00 | 88 | 1007.6 |
| 20260506061816 | 10 | 352 | 14.5 | 22.5 | 0.00 | 0.10 | 0.00 | 89 | 1007.5 |
| 20260506061316 | 10 | 344 | 14.5 | 22.5 | 0.00 | 0.10 | 0.00 | 89 | 1007.5 |
| 20260506060815 | 10 | 341 | 14.5 | 22.5 | 0.00 | 0.10 | 0.00 | 89 | 1007.5 |
| 20260506060547 | 10 | 343 | 14.5 | 22.5 | 0.00 | 0.10 | 0.00 | 89 | 1007.6 |
| 20260506051303 | 10 | 345 | 14.5 | 22.5 | 0.00 | 0.10 | 0.00 | 91 | 1007.4 |
| 20260506050803 | 10 | 331 | 12.9 | 19.3 | 0.00 | 0.10 | 0.00 | 91 | 1007.4 |
| 20260506050304 | 9 | 26 | 12.9 | 19.3 | 0.00 | 0.10 | 0.00 | 92 | 1007.5 |
| 20260506044804 | 9 | 355 | 9.7 | 16.1 | 0.00 | 0.10 | 0.00 | 97 | 1007.5 |
| 20260506044302 | 9 | 339 | 9.7 | 16.1 | 0.00 | 0.10 | 0.00 | 98 | 1007.6 |
| 20260506043803 | 9 | 354 | 11.3 | 17.7 | 0.00 | 0.10 | 0.00 | 98 | 1007.6 |
| 20260506043302 | 9 | 321 | 12.9 | 19.3 | 0.00 | 0.10 | 0.00 | 97 | 1007.7 |
| 20260506042803 | 9 | 330 | 14.5 | 19.3 | 0.00 | 0.10 | 0.00 | 96 | 1007.7 |
| 20260506042305 | 9 | 339 | 12.9 | 19.3 | 0.00 | 0.10 | 0.00 | 95 | 1007.6 |
| 20260506041802 | 9 | 325 | 11.3 | 17.7 | 0.00 | 0.10 | 0.00 | 93 | 1007.6 |
| 20260506041303 | 9 | 343 | 9.7 | 14.5 | 0.00 | 0.10 | 0.00 | 93 | 1007.7 |
| 20260506040803 | 9 | 324 | 9.7 | 14.5 | 0.00 | 0.10 | 0.00 | 93 | 1007.6 |
| 20260506040303 | 9 | 340 | 9.7 | 14.5 | 0.00 | 0.10 | 0.00 | 92 | 1007.7 |
| 20260506035802 | 9 | 344 | 9.7 | 16.1 | 0.00 | 0.10 | 0.00 | 92 | 1007.7 |
| 20260506035305 | 9 | 353 | 12.9 | 19.3 | 0.00 | 0.10 | 0.00 | 92 | 1007.7 |
| 20260506034803 | 9 | 6 | 14.5 | 20.9 | 0.00 | 0.10 | 0.00 | 91 | 1007.8 |
| 20260506034303 | 9 | 12 | 14.5 | 22.5 | 0.00 | 0.10 | 0.00 | 92 | 1007.8 |
| 20260506034037 | 9 | 9 | 14.5 | 22.5 | 0.00 | 0.10 | 0.00 | 91 | 1007.8 |
| 20260506033302 | 9 | 6 | 16.1 | 22.5 | 0.00 | 0.10 | 0.00 | 91 | 1007.8 |
| 20260506032803 | 8 | 8 | 16.1 | 22.5 | 0.00 | 0.10 | 0.00 | 91 | 1007.8 |
| 20260506032305 | 8 | 12 | 16.1 | 25.7 | 0.00 | 0.10 | 0.00 | 92 | 1007.8 |
| 20260506031802 | 8 | 12 | 17.7 | 25.7 | 0.00 | 0.10 | 0.00 | 92 | 1007.9 |
| 20260506031302 | 9 | 18 | 19.3 | 27.4 | 0.00 | 0.10 | 0.00 | 90 | 1007.9 |
| 20260506031040 | 9 | 11 | 20.9 | 30.6 | 0.00 | 0.10 | 0.00 | 88 | 1007.9 |
| 20260506030302 | 9 | 15 | 19.3 | 30.6 | 0.00 | 0.10 | 0.00 | 88 | 1007.8 |
| 20260506025811 | 9 | 10 | 22.5 | 32.2 | 0.00 | 0.10 | 0.00 | 88 | 1007.9 |
| 20260506025308 | 9 | 9 | 22.5 | 32.2 | 0.00 | 0.10 | 0.00 | 86 | 1007.8 |
| 20260506024805 | 9 | 20 | 22.5 | 32.2 | 0.00 | 0.10 | 0.00 | 87 | 1008.0 |
| 20260506024303 | 9 | 10 | 24.1 | 33.8 | 0.00 | 0.10 | 0.00 | 86 | 1007.9 |
| 20260506023803 | 9 | 12 | 24.1 | 33.8 | 0.00 | 0.10 | 0.00 | 85 | 1008.0 |
| 20260506023304 | 9 | 9 | 22.5 | 32.2 | 0.00 | 0.10 | 0.00 | 84 | 1007.8 |
| 20260506022803 | 9 | 4 | 24.1 | 38.6 | 0.00 | 0.10 | 0.00 | 87 | 1007.9 |
| 20260506022305 | 9 | 3 | 27.4 | 38.6 | 0.00 | 0.10 | 0.00 | 86 | 1008.1 |
| 20260506021801 | 10 | 12 | 22.5 | 37.0 | 0.00 | 0.10 | 0.00 | 85 | 1007.7 |
| 20260506021301 | 10 | 17 | 14.5 | 27.4 | 0.00 | 0.10 | 0.00 | 86 | 1008.0 |
| 20260506021034 | 10 | 10 | 12.9 | 22.5 | 0.00 | 0.10 | 0.00 | 88 | 1008.1 |
| 20260506020301 | 10 | 35 | 16.1 | 25.7 | 0.00 | 0.10 | 0.00 | 87 | 1008.1 |
| 20260506015802 | 10 | 15 | 19.3 | 27.4 | 0.00 | 0.10 | 0.00 | 86 | 1008.0 |
| 20260506015305 | 10 | 4 | 19.3 | 27.4 | 0.00 | 0.10 | 0.00 | 86 | 1007.9 |
| 20260506014802 | 10 | 3 | 19.3 | 27.4 | 0.00 | 0.10 | 0.00 | 86 | 1007.9 |
| 20260506014302 | 10 | 4 | 19.3 | 27.4 | 0.00 | 0.10 | 0.00 | 87 | 1008.0 |
| 20260506013801 | 10 | 358 | 19.3 | 27.4 | 0.00 | 0.10 | 0.00 | 86 | 1008.0 |
| 20260506013304 | 10 | 7 | 19.3 | 27.4 | 0.00 | 0.10 | 0.00 | 87 | 1007.9 |
| 20260506012803 | 10 | 359 | 17.7 | 24.1 | 0.00 | 0.10 | 0.00 | 87 | 1008.0 |
| 20260506012301 | 10 | 351 | 16.1 | 22.5 | 0.00 | 0.10 | 0.00 | 87 | 1008.1 |
| 20260506011800 | 9 | 2 | 14.5 | 22.5 | 0.00 | 0.10 | 0.00 | 87 | 1008.2 |
| 20260506011301 | 9 | 358 | 14.5 | 22.5 | 0.00 | 0.10 | 0.00 | 87 | 1008.2 |
| 20260506010757 | 9 | 358 | 12.9 | 20.9 | 0.00 | 0.10 | 0.00 | 88 | 1008.2 |
| 20260506010257 | 9 | 311 | 12.9 | 17.7 | 0.00 | 0.10 | 0.00 | 87 | 1008.2 |
| 20260506005757 | 9 | 29 | 12.9 | 17.7 | 0.00 | 0.10 | 0.00 | 87 | 1008.3 |
| 20260506005258 | 9 | 349 | 12.9 | 19.3 | 0.00 | 0.10 | 0.00 | 87 | 1008.4 |
| 20260506004757 | 9 | 1 | 12.9 | 19.3 | 0.00 | 0.10 | 0.00 | 87 | 1008.4 |
| 20260506004256 | 9 | 14 | 12.9 | 17.7 | 0.00 | 0.10 | 0.00 | 89 | 1008.5 |
| 20260506003756 | 8 | 6 | 12.9 | 17.7 | 0.00 | 0.10 | 0.00 | 89 | 1008.5 |
| 20260506003255 | 8 | 359 | 12.9 | 17.7 | 0.00 | 0.10 | 0.00 | 89 | 1008.6 |
| 20260506002755 | 8 | 339 | 12.9 | 17.7 | 0.00 | 0.10 | 0.00 | 89 | 1008.6 |
| 20260506002252 | 8 | 8 | 11.3 | 17.7 | 0.00 | 0.10 | 0.00 | 90 | 1008.6 |
| 20260506001749 | 8 | 358 | 9.7 | 14.5 | 0.00 | 0.10 | 0.00 | 90 | 1008.7 |
| 20260506001249 | 8 | 337 | 9.7 | 14.5 | 0.00 | 0.10 | 0.00 | 90 | 1008.7 |
| 20260506000745 | 8 | 335 | 9.7 | 14.5 | 0.00 | 0.10 | 0.00 | 90 | 1008.8 |
| 20260506000247 | 8 | 333 | 11.3 | 14.5 | 0.00 | 0.10 | 0.00 | 89 | 1008.7 |
| 20260505235745 | 8 | 341 | 11.3 | 16.1 | 0.00 | 0.10 | 0.00 | 89 | 1008.8 |
| 20260505235515 | 8 | 349 | 11.3 | 16.1 | 0.00 | 0.10 | 0.00 | 88 | 1008.9 |
| 20260505234745 | 8 | 328 | 9.7 | 14.5 | 0.00 | 0.10 | 0.00 | 87 | 1008.9 |
| 20260505234246 | 8 | 324 | 9.7 | 14.5 | 0.00 | 0.10 | 0.00 | 87 | 1008.9 |
| 20260505233746 | 8 | 331 | 9.7 | 14.5 | 0.00 | 0.10 | 0.00 | 87 | 1008.9 |
| 20260505233515 | 8 | 323 | 9.7 | 14.5 | 0.00 | 0.10 | 0.00 | 87 | 1009.0 |
| 20260505232746 | 8 | 327 | 11.3 | 16.1 | 0.00 | 0.10 | 0.00 | 87 | 1009.1 |
| 20260505232514 | 8 | 340 | 12.9 | 19.3 | 0.00 | 0.10 | 0.00 | 87 | 1009.1 |
| 20260505231746 | 8 | 358 | 14.5 | 19.3 | 0.00 | 0.10 | 0.00 | 86 | 1009.2 |
| 20260505231246 | 8 | 8 | 14.5 | 19.3 | 0.00 | 0.10 | 0.00 | 85 | 1009.1 |
| 20260505230746 | 8 | 11 | 14.5 | 20.9 | 0.00 | 0.10 | 0.00 | 84 | 1009.2 |
| 20260505230247 | 8 | 10 | 14.5 | 20.9 | 0.00 | 0.10 | 0.00 | 84 | 1009.2 |
| 20260505230021 | 8 | 20 | 14.5 | 20.9 | 0.00 | 0.10 | 0.00 | 84 | 1009.3 |
| 20260505225244 | 8 | 10 | 14.5 | 20.9 | 0.00 | 0.10 | 0.00 | 83 | 1009.3 |
| 20260505224743 | 8 | 18 | 14.5 | 17.7 | 0.00 | 0.10 | 0.00 | 83 | 1009.2 |
| 20260505224243 | 8 | 12 | 12.9 | 16.1 | 0.00 | 0.10 | 0.00 | 84 | 1009.3 |
| 20260505223744 | 8 | 19 | 12.9 | 16.1 | 0.00 | 0.10 | 0.00 | 84 | 1009.3 |
| 20260505223244 | 8 | 16 | 11.3 | 16.1 | 0.00 | 0.10 | 0.00 | 84 | 1009.4 |
| 20260505222743 | 8 | 18 | 11.3 | 14.5 | 0.00 | 0.10 | 0.00 | 84 | 1009.4 |
| 20260505222244 | 8 | 15 | 11.3 | 16.1 | 0.00 | 0.10 | 0.00 | 85 | 1009.5 |
| 20260505221744 | 8 | 26 | 12.9 | 16.1 | 0.00 | 0.10 | 0.00 | 83 | 1009.4 |
| 20260505221510 | 8 | 20 | 12.9 | 17.7 | 0.00 | 0.10 | 0.00 | 82 | 1009.5 |
| 20260505220741 | 8 | 17 | 12.9 | 17.7 | 0.00 | 0.10 | 0.00 | 82 | 1009.5 |
| 20260505220251 | 9 | 13 | 16.1 | 20.9 | 0.00 | 0.10 | 0.10 | 81 | 1009.5 |
| 20260505220247 | 8 | 11 | 14.5 | 20.9 | 0.00 | 0.10 | 0.00 | 82 | 1009.5 |
| 20260505215238 | 9 | 13 | 17.7 | 22.5 | 0.00 | 0.10 | 0.10 | 80 | 1009.4 |
| 20260505214736 | 9 | 4 | 17.7 | 24.1 | 0.00 | 0.10 | 0.10 | 80 | 1009.4 |
| 20260505214235 | 9 | 12 | 17.7 | 24.1 | 0.00 | 0.10 | 0.10 | 78 | 1009.5 |
| 20260505213736 | 9 | 1 | 16.1 | 25.7 | 0.00 | 0.10 | 0.10 | 79 | 1009.5 |
| 20260505213236 | 10 | 9 | 16.1 | 25.7 | 0.00 | 0.10 | 0.10 | 78 | 1009.5 |
| 20260505212735 | 10 | 4 | 17.7 | 25.7 | 0.00 | 0.10 | 0.10 | 77 | 1009.5 |
| 20260505212502 | 10 | 11 | 17.7 | 25.7 | 0.00 | 0.10 | 0.10 | 78 | 1009.5 |
| 20260505212006 | 10 | 3 | 19.3 | 25.7 | 0.00 | 0.10 | 0.10 | 77 | 1009.5 |
| 20260505211236 | 10 | 0 | 19.3 | 25.7 | 0.00 | 0.10 | 0.10 | 77 | 1009.4 |
| 20260505210736 | 10 | 358 | 19.3 | 25.7 | 0.00 | 0.10 | 0.10 | 78 | 1009.5 |
| 20260505210238 | 10 | 9 | 19.3 | 25.7 | 0.00 | 0.10 | 0.10 | 78 | 1009.5 |
| 20260505205746 | 10 | 10 | 20.9 | 29.0 | 0.00 | 0.10 | 0.10 | 78 | 1009.7 |
| 20260505205740 | 10 | 3 | 19.3 | 24.1 | 0.00 | 0.10 | 0.10 | 78 | 1009.6 |
| 20260505204736 | 10 | 2 | 20.9 | 29.0 | 0.00 | 0.10 | 0.10 | 78 | 1009.7 |
| 20260505204233 | 10 | 11 | 20.9 | 30.6 | 0.00 | 0.10 | 0.10 | 78 | 1009.6 |
| 20260505203733 | 10 | 11 | 20.9 | 32.2 | 0.00 | 0.10 | 0.10 | 78 | 1009.7 |
| 20260505203234 | 10 | 22 | 20.9 | 32.2 | 0.00 | 0.10 | 0.10 | 78 | 1009.7 |
| 20260505202733 | 10 | 11 | 17.7 | 25.7 | 0.00 | 0.10 | 0.10 | 78 | 1009.6 |
| 20260505202512 | 10 | 359 | 19.3 | 27.4 | 0.00 | 0.10 | 0.10 | 80 | 1009.7 |
| 20260505201733 | 10 | 5 | 19.3 | 27.4 | 0.00 | 0.10 | 0.10 | 79 | 1009.7 |
| 20260505201512 | 10 | 5 | 20.9 | 27.4 | 0.00 | 0.10 | 0.10 | 79 | 1009.7 |
| 20260505200747 | 10 | 2 | 20.9 | 27.4 | 0.00 | 0.10 | 0.10 | 79 | 1009.7 |
| 20260505200742 | 10 | 7 | 20.9 | 27.4 | 0.00 | 0.10 | 0.10 | 79 | 1009.6 |
| 20260505195732 | 10 | 8 | 20.9 | 29.0 | 0.00 | 0.10 | 0.10 | 79 | 1009.6 |
| 20260505195512 | 10 | 7 | 20.9 | 29.0 | 0.00 | 0.10 | 0.10 | 79 | 1009.6 |
| 20260505194731 | 10 | 8 | 22.5 | 32.2 | 0.00 | 0.10 | 0.10 | 79 | 1009.5 |
| 20260505194228 | 10 | 10 | 24.1 | 32.2 | 0.00 | 0.10 | 0.10 | 79 | 1009.4 |
| 20260505193726 | 10 | 6 | 24.1 | 32.2 | 0.00 | 0.10 | 0.10 | 79 | 1009.3 |
| 20260505193222 | 10 | 3 | 22.5 | 30.6 | 0.00 | 0.10 | 0.10 | 78 | 1009.5 |
| 20260505192723 | 10 | 359 | 24.1 | 37.0 | 0.00 | 0.10 | 0.10 | 79 | 1009.4 |
| 20260505192222 | 10 | 0 | 27.4 | 40.2 | 0.00 | 0.10 | 0.10 | 78 | 1009.3 |
| 20260505191958 | 10 | 8 | 29.0 | 40.2 | 0.00 | 0.10 | 0.10 | 78 | 1009.2 |
| 20260505191223 | 11 | 10 | 27.4 | 40.2 | 0.03 | 0.10 | 0.10 | 78 | 1009.0 |
| 20260505190723 | 11 | 11 | 27.4 | 41.8 | 0.03 | 0.10 | 0.10 | 78 | 1008.9 |
| 20260505190514 | 11 | 11 | 27.4 | 41.8 | 0.03 | 0.10 | 0.10 | 78 | 1009.0 |
| 20260505185723 | 11 | 6 | 27.4 | 38.6 | 0.00 | 0.08 | 0.08 | 77 | 1009.0 |
| 20260505185222 | 11 | 13 | 25.7 | 33.8 | 0.00 | 0.08 | 0.08 | 77 | 1008.8 |